sensor_id;sensor_type;location;lat;lon;timestamp;P1;durP1;ratioP1;P2;durP2;ratioP2
42420;SDS011;28063;48.140;11.588;2022-12-18T00:01:37;54.25;;;23.83;;
42420;SDS011;28063;48.140;11.588;2022-12-18T00:04:05;60.97;;;24.65;;
42420;SDS011;28063;48.140;11.588;2022-12-18T00:06:33;63.05;;;25.63;;
42420;SDS011;28063;48.140;11.588;2022-12-18T00:09:00;66.03;;;26.65;;
42420;SDS011;28063;48.140;11.588;2022-12-18T00:11:28;61.90;;;25.73;;
42420;SDS011;28063;48.140;11.588;2022-12-18T00:13:55;66.13;;;26.38;;
42420;SDS011;28063;48.140;11.588;2022-12-18T00:16:22;65.13;;;25.98;;
42420;SDS011;28063;48.140;11.588;2022-12-18T00:18:49;59.33;;;24.45;;
42420;SDS011;28063;48.140;11.588;2022-12-18T00:21:15;72.15;;;27.08;;
42420;SDS011;28063;48.140;11.588;2022-12-18T00:23:42;65.68;;;24.98;;
42420;SDS011;28063;48.140;11.588;2022-12-18T00:26:12;71.60;;;26.23;;
42420;SDS011;28063;48.140;11.588;2022-12-18T00:28:39;57.67;;;24.05;;
42420;SDS011;28063;48.140;11.588;2022-12-18T00:31:07;64.30;;;24.80;;
42420;SDS011;28063;48.140;11.588;2022-12-18T00:33:33;64.07;;;25.20;;
42420;SDS011;28063;48.140;11.588;2022-12-18T00:36:01;64.18;;;25.13;;
42420;SDS011;28063;48.140;11.588;2022-12-18T00:38:27;59.90;;;23.85;;
42420;SDS011;28063;48.140;11.588;2022-12-18T00:40:53;61.67;;;24.15;;
42420;SDS011;28063;48.140;11.588;2022-12-18T00:43:19;66.30;;;27.33;;
42420;SDS011;28063;48.140;11.588;2022-12-18T00:45:45;72.55;;;24.90;;
42420;SDS011;28063;48.140;11.588;2022-12-18T00:48:11;60.20;;;23.05;;
42420;SDS011;28063;48.140;11.588;2022-12-18T00:50:37;62.92;;;25.08;;
42420;SDS011;28063;48.140;11.588;2022-12-18T00:53:04;60.92;;;23.98;;
42420;SDS011;28063;48.140;11.588;2022-12-18T00:55:30;60.05;;;22.05;;
42420;SDS011;28063;48.140;11.588;2022-12-18T00:57:56;63.72;;;23.05;;
42420;SDS011;28063;48.140;11.588;2022-12-18T01:00:22;53.30;;;22.92;;
42420;SDS011;28063;48.140;11.588;2022-12-18T01:02:48;61.17;;;23.33;;
42420;SDS011;28063;48.140;11.588;2022-12-18T01:05:14;60.05;;;23.67;;
42420;SDS011;28063;48.140;11.588;2022-12-18T01:07:51;53.13;;;20.92;;
42420;SDS011;28063;48.140;11.588;2022-12-18T01:10:17;60.95;;;23.45;;
42420;SDS011;28063;48.140;11.588;2022-12-18T01:12:43;64.47;;;23.83;;
42420;SDS011;28063;48.140;11.588;2022-12-18T01:15:10;59.28;;;23.30;;
42420;SDS011;28063;48.140;11.588;2022-12-18T01:17:36;66.95;;;23.45;;
42420;SDS011;28063;48.140;11.588;2022-12-18T01:20:02;62.05;;;23.63;;
42420;SDS011;28063;48.140;11.588;2022-12-18T01:22:28;57.05;;;22.98;;
42420;SDS011;28063;48.140;11.588;2022-12-18T01:24:54;59.85;;;23.27;;
42420;SDS011;28063;48.140;11.588;2022-12-18T01:27:20;64.43;;;25.02;;
42420;SDS011;28063;48.140;11.588;2022-12-18T01:29:46;60.08;;;24.52;;
42420;SDS011;28063;48.140;11.588;2022-12-18T01:32:12;67.20;;;25.45;;
42420;SDS011;28063;48.140;11.588;2022-12-18T01:34:39;58.08;;;23.13;;
42420;SDS011;28063;48.140;11.588;2022-12-18T01:37:05;55.53;;;22.52;;
42420;SDS011;28063;48.140;11.588;2022-12-18T01:39:31;54.00;;;21.83;;
42420;SDS011;28063;48.140;11.588;2022-12-18T01:42:02;63.50;;;24.52;;
42420;SDS011;28063;48.140;11.588;2022-12-18T01:47:18;65.72;;;25.52;;
42420;SDS011;28063;48.140;11.588;2022-12-18T01:49:45;61.22;;;24.95;;
42420;SDS011;28063;48.140;11.588;2022-12-18T01:52:12;63.20;;;23.52;;
42420;SDS011;28063;48.140;11.588;2022-12-18T01:54:39;59.97;;;25.27;;
42420;SDS011;28063;48.140;11.588;2022-12-18T01:57:05;74.22;;;26.42;;
42420;SDS011;28063;48.140;11.588;2022-12-18T01:59:31;62.97;;;24.83;;
42420;SDS011;28063;48.140;11.588;2022-12-18T02:02:01;65.85;;;26.98;;
42420;SDS011;28063;48.140;11.588;2022-12-18T02:04:28;69.00;;;26.70;;
42420;SDS011;28063;48.140;11.588;2022-12-18T02:07:06;65.85;;;26.85;;
42420;SDS011;28063;48.140;11.588;2022-12-18T02:09:36;67.22;;;26.88;;
42420;SDS011;28063;48.140;11.588;2022-12-18T02:12:23;62.80;;;25.70;;
42420;SDS011;28063;48.140;11.588;2022-12-18T02:17:48;62.35;;;24.58;;
42420;SDS011;28063;48.140;11.588;2022-12-18T02:20:28;71.70;;;28.35;;
42420;SDS011;28063;48.140;11.588;2022-12-18T02:27:56;76.22;;;28.33;;
42420;SDS011;28063;48.140;11.588;2022-12-18T02:30:23;63.97;;;26.17;;
42420;SDS011;28063;48.140;11.588;2022-12-18T02:32:50;69.85;;;28.50;;
42420;SDS011;28063;48.140;11.588;2022-12-18T02:35:20;77.70;;;29.25;;
42420;SDS011;28063;48.140;11.588;2022-12-18T02:37:47;71.32;;;28.60;;
42420;SDS011;28063;48.140;11.588;2022-12-18T02:40:14;69.95;;;26.88;;
42420;SDS011;28063;48.140;11.588;2022-12-18T02:42:41;75.78;;;27.73;;
42420;SDS011;28063;48.140;11.588;2022-12-18T02:45:07;74.68;;;28.98;;
42420;SDS011;28063;48.140;11.588;2022-12-18T02:47:34;72.80;;;27.73;;
42420;SDS011;28063;48.140;11.588;2022-12-18T03:00:04;74.28;;;27.95;;
42420;SDS011;28063;48.140;11.588;2022-12-18T03:02:46;69.05;;;26.90;;
42420;SDS011;28063;48.140;11.588;2022-12-18T03:05:30;71.35;;;29.00;;
42420;SDS011;28063;48.140;11.588;2022-12-18T03:07:58;67.80;;;26.30;;
42420;SDS011;28063;48.140;11.588;2022-12-18T03:10:28;69.03;;;27.33;;
42420;SDS011;28063;48.140;11.588;2022-12-18T03:12:58;67.18;;;27.38;;
42420;SDS011;28063;48.140;11.588;2022-12-18T03:15:36;68.13;;;25.77;;
42420;SDS011;28063;48.140;11.588;2022-12-18T03:18:04;73.35;;;27.30;;
42420;SDS011;28063;48.140;11.588;2022-12-18T03:20:31;65.63;;;26.23;;
42420;SDS011;28063;48.140;11.588;2022-12-18T03:22:59;70.03;;;26.50;;
42420;SDS011;28063;48.140;11.588;2022-12-18T03:25:28;58.88;;;25.27;;
42420;SDS011;28063;48.140;11.588;2022-12-18T03:27:56;67.38;;;26.63;;
42420;SDS011;28063;48.140;11.588;2022-12-18T03:30:25;71.50;;;27.70;;
42420;SDS011;28063;48.140;11.588;2022-12-18T03:32:53;65.47;;;25.15;;
42420;SDS011;28063;48.140;11.588;2022-12-18T03:35:25;66.50;;;26.15;;
42420;SDS011;28063;48.140;11.588;2022-12-18T03:37:52;69.78;;;28.23;;
42420;SDS011;28063;48.140;11.588;2022-12-18T03:40:19;69.70;;;26.95;;
42420;SDS011;28063;48.140;11.588;2022-12-18T03:42:53;66.10;;;26.23;;
42420;SDS011;28063;48.140;11.588;2022-12-18T03:45:23;63.58;;;25.88;;
42420;SDS011;28063;48.140;11.588;2022-12-18T03:47:53;69.90;;;27.10;;
42420;SDS011;28063;48.140;11.588;2022-12-18T03:50:42;67.95;;;26.98;;
42420;SDS011;28063;48.140;11.588;2022-12-18T03:56:09;64.80;;;27.15;;
42420;SDS011;28063;48.140;11.588;2022-12-18T03:58:37;65.40;;;25.90;;
42420;SDS011;28063;48.140;11.588;2022-12-18T04:01:06;70.25;;;26.23;;
42420;SDS011;28063;48.140;11.588;2022-12-18T04:03:33;62.05;;;25.95;;
42420;SDS011;28063;48.140;11.588;2022-12-18T04:06:00;62.67;;;26.55;;
42420;SDS011;28063;48.140;11.588;2022-12-18T04:08:26;67.45;;;26.05;;
42420;SDS011;28063;48.140;11.588;2022-12-18T04:10:52;65.60;;;25.10;;
42420;SDS011;28063;48.140;11.588;2022-12-18T04:13:27;67.32;;;25.90;;
42420;SDS011;28063;48.140;11.588;2022-12-18T04:15:54;69.15;;;24.60;;
42420;SDS011;28063;48.140;11.588;2022-12-18T04:18:20;63.25;;;26.20;;
42420;SDS011;28063;48.140;11.588;2022-12-18T04:20:46;61.00;;;24.30;;
42420;SDS011;28063;48.140;11.588;2022-12-18T04:23:13;64.75;;;25.95;;
42420;SDS011;28063;48.140;11.588;2022-12-18T04:25:39;59.58;;;24.17;;
42420;SDS011;28063;48.140;11.588;2022-12-18T04:28:05;63.33;;;25.30;;
42420;SDS011;28063;48.140;11.588;2022-12-18T04:30:31;59.38;;;23.55;;
42420;SDS011;28063;48.140;11.588;2022-12-18T04:32:57;66.40;;;25.98;;
42420;SDS011;28063;48.140;11.588;2022-12-18T04:35:23;61.17;;;24.25;;
42420;SDS011;28063;48.140;11.588;2022-12-18T04:37:50;62.55;;;24.27;;
42420;SDS011;28063;48.140;11.588;2022-12-18T04:40:16;63.42;;;24.75;;
42420;SDS011;28063;48.140;11.588;2022-12-18T04:42:42;60.80;;;22.42;;
42420;SDS011;28063;48.140;11.588;2022-12-18T04:45:08;59.13;;;25.75;;
42420;SDS011;28063;48.140;11.588;2022-12-18T04:47:34;58.10;;;24.02;;
42420;SDS011;28063;48.140;11.588;2022-12-18T04:50:00;58.72;;;23.67;;
42420;SDS011;28063;48.140;11.588;2022-12-18T04:52:29;60.30;;;22.73;;
42420;SDS011;28063;48.140;11.588;2022-12-18T04:54:55;55.40;;;22.15;;
42420;SDS011;28063;48.140;11.588;2022-12-18T04:57:21;55.03;;;22.33;;
42420;SDS011;28063;48.140;11.588;2022-12-18T05:02:39;57.13;;;24.50;;
42420;SDS011;28063;48.140;11.588;2022-12-18T05:05:05;59.83;;;22.45;;
42420;SDS011;28063;48.140;11.588;2022-12-18T05:07:31;67.35;;;26.05;;
42420;SDS011;28063;48.140;11.588;2022-12-18T05:09:57;59.65;;;22.27;;
42420;SDS011;28063;48.140;11.588;2022-12-18T05:12:23;64.25;;;23.55;;
42420;SDS011;28063;48.140;11.588;2022-12-18T05:14:49;61.58;;;22.98;;
42420;SDS011;28063;48.140;11.588;2022-12-18T05:17:15;54.83;;;22.40;;
42420;SDS011;28063;48.140;11.588;2022-12-18T05:19:42;60.38;;;24.70;;
42420;SDS011;28063;48.140;11.588;2022-12-18T05:22:08;50.60;;;21.48;;
42420;SDS011;28063;48.140;11.588;2022-12-18T05:24:34;62.53;;;23.85;;
42420;SDS011;28063;48.140;11.588;2022-12-18T05:27:00;54.10;;;23.02;;
42420;SDS011;28063;48.140;11.588;2022-12-18T05:29:27;50.03;;;21.73;;
42420;SDS011;28063;48.140;11.588;2022-12-18T05:31:53;55.20;;;21.98;;
42420;SDS011;28063;48.140;11.588;2022-12-18T05:34:19;59.92;;;22.55;;
42420;SDS011;28063;48.140;11.588;2022-12-18T05:36:45;59.95;;;24.50;;
42420;SDS011;28063;48.140;11.588;2022-12-18T05:39:11;49.90;;;21.70;;
42420;SDS011;28063;48.140;11.588;2022-12-18T05:41:37;58.15;;;23.42;;
42420;SDS011;28063;48.140;11.588;2022-12-18T05:44:03;50.20;;;20.92;;
42420;SDS011;28063;48.140;11.588;2022-12-18T05:46:29;50.03;;;20.80;;
42420;SDS011;28063;48.140;11.588;2022-12-18T05:48:58;54.40;;;22.48;;
42420;SDS011;28063;48.140;11.588;2022-12-18T05:51:25;50.50;;;21.38;;
42420;SDS011;28063;48.140;11.588;2022-12-18T05:53:51;49.55;;;20.60;;
42420;SDS011;28063;48.140;11.588;2022-12-18T05:56:18;52.83;;;21.25;;
42420;SDS011;28063;48.140;11.588;2022-12-18T05:58:45;58.42;;;21.60;;
42420;SDS011;28063;48.140;11.588;2022-12-18T06:01:12;49.92;;;21.42;;
42420;SDS011;28063;48.140;11.588;2022-12-18T06:03:39;48.15;;;21.10;;
42420;SDS011;28063;48.140;11.588;2022-12-18T06:06:26;47.10;;;21.42;;
42420;SDS011;28063;48.140;11.588;2022-12-18T06:08:51;43.45;;;19.33;;
42420;SDS011;28063;48.140;11.588;2022-12-18T06:11:19;45.92;;;20.48;;
42420;SDS011;28063;48.140;11.588;2022-12-18T06:13:45;44.10;;;19.55;;
42420;SDS011;28063;48.140;11.588;2022-12-18T06:16:12;48.15;;;20.38;;
42420;SDS011;28063;48.140;11.588;2022-12-18T06:18:38;47.25;;;19.80;;
42420;SDS011;28063;48.140;11.588;2022-12-18T06:21:04;47.85;;;19.67;;
42420;SDS011;28063;48.140;11.588;2022-12-18T06:23:30;47.08;;;20.60;;
42420;SDS011;28063;48.140;11.588;2022-12-18T06:25:56;53.60;;;20.85;;
42420;SDS011;28063;48.140;11.588;2022-12-18T06:28:22;48.80;;;20.10;;
42420;SDS011;28063;48.140;11.588;2022-12-18T06:30:49;48.78;;;20.70;;
42420;SDS011;28063;48.140;11.588;2022-12-18T06:33:15;41.58;;;18.17;;
42420;SDS011;28063;48.140;11.588;2022-12-18T06:35:41;48.60;;;19.67;;
42420;SDS011;28063;48.140;11.588;2022-12-18T06:38:08;49.08;;;19.83;;
42420;SDS011;28063;48.140;11.588;2022-12-18T06:40:34;45.60;;;19.17;;
42420;SDS011;28063;48.140;11.588;2022-12-18T06:43:00;40.70;;;17.92;;
42420;SDS011;28063;48.140;11.588;2022-12-18T06:45:26;50.15;;;20.52;;
42420;SDS011;28063;48.140;11.588;2022-12-18T06:47:52;55.70;;;21.35;;
42420;SDS011;28063;48.140;11.588;2022-12-18T06:50:19;48.38;;;20.63;;
42420;SDS011;28063;48.140;11.588;2022-12-18T06:52:45;51.00;;;20.48;;
42420;SDS011;28063;48.140;11.588;2022-12-18T06:55:11;49.92;;;20.50;;
42420;SDS011;28063;48.140;11.588;2022-12-18T06:57:37;49.17;;;18.75;;
42420;SDS011;28063;48.140;11.588;2022-12-18T07:00:04;51.55;;;20.08;;
42420;SDS011;28063;48.140;11.588;2022-12-18T07:02:31;48.35;;;20.48;;
42420;SDS011;28063;48.140;11.588;2022-12-18T07:05:00;52.85;;;21.88;;
42420;SDS011;28063;48.140;11.588;2022-12-18T07:07:30;47.55;;;19.17;;
42420;SDS011;28063;48.140;11.588;2022-12-18T07:09:59;51.78;;;21.00;;
42420;SDS011;28063;48.140;11.588;2022-12-18T07:12:26;46.88;;;19.77;;
42420;SDS011;28063;48.140;11.588;2022-12-18T07:14:52;50.50;;;20.05;;
42420;SDS011;28063;48.140;11.588;2022-12-18T07:17:18;48.78;;;19.30;;
42420;SDS011;28063;48.140;11.588;2022-12-18T07:19:44;50.92;;;20.63;;
42420;SDS011;28063;48.140;11.588;2022-12-18T07:22:10;55.33;;;20.60;;
42420;SDS011;28063;48.140;11.588;2022-12-18T07:24:36;50.03;;;19.50;;
42420;SDS011;28063;48.140;11.588;2022-12-18T07:27:03;49.20;;;19.85;;
42420;SDS011;28063;48.140;11.588;2022-12-18T07:29:29;49.78;;;20.25;;
42420;SDS011;28063;48.140;11.588;2022-12-18T07:31:55;46.45;;;20.92;;
42420;SDS011;28063;48.140;11.588;2022-12-18T07:34:21;48.40;;;19.83;;
42420;SDS011;28063;48.140;11.588;2022-12-18T07:36:48;51.47;;;20.05;;
42420;SDS011;28063;48.140;11.588;2022-12-18T07:39:14;45.17;;;19.15;;
42420;SDS011;28063;48.140;11.588;2022-12-18T07:41:40;38.65;;;17.35;;
42420;SDS011;28063;48.140;11.588;2022-12-18T07:44:29;49.60;;;20.83;;
42420;SDS011;28063;48.140;11.588;2022-12-18T07:46:55;44.65;;;19.02;;
42420;SDS011;28063;48.140;11.588;2022-12-18T07:49:21;43.83;;;18.17;;
42420;SDS011;28063;48.140;11.588;2022-12-18T07:51:47;47.05;;;19.83;;
42420;SDS011;28063;48.140;11.588;2022-12-18T07:54:14;47.30;;;19.52;;
42420;SDS011;28063;48.140;11.588;2022-12-18T07:56:40;46.00;;;18.98;;
42420;SDS011;28063;48.140;11.588;2022-12-18T07:59:06;45.03;;;19.13;;
42420;SDS011;28063;48.140;11.588;2022-12-18T08:01:32;49.47;;;19.98;;
42420;SDS011;28063;48.140;11.588;2022-12-18T08:03:59;42.00;;;17.55;;
42420;SDS011;28063;48.140;11.588;2022-12-18T08:06:25;41.28;;;18.80;;
42420;SDS011;28063;48.140;11.588;2022-12-18T08:08:52;48.28;;;19.35;;
42420;SDS011;28063;48.140;11.588;2022-12-18T08:11:18;39.03;;;16.92;;
42420;SDS011;28063;48.140;11.588;2022-12-18T08:13:44;41.25;;;17.83;;
42420;SDS011;28063;48.140;11.588;2022-12-18T08:16:10;43.25;;;18.48;;
42420;SDS011;28063;48.140;11.588;2022-12-18T08:18:36;40.70;;;17.80;;
42420;SDS011;28063;48.140;11.588;2022-12-18T08:21:09;38.38;;;17.20;;
42420;SDS011;28063;48.140;11.588;2022-12-18T08:23:36;36.47;;;16.08;;
42420;SDS011;28063;48.140;11.588;2022-12-18T08:26:02;39.05;;;17.20;;
42420;SDS011;28063;48.140;11.588;2022-12-18T08:28:28;35.13;;;15.55;;
42420;SDS011;28063;48.140;11.588;2022-12-18T08:30:54;39.42;;;17.35;;
42420;SDS011;28063;48.140;11.588;2022-12-18T08:33:21;37.45;;;16.75;;
42420;SDS011;28063;48.140;11.588;2022-12-18T08:35:47;34.45;;;14.73;;
42420;SDS011;28063;48.140;11.588;2022-12-18T08:38:13;45.42;;;18.35;;
42420;SDS011;28063;48.140;11.588;2022-12-18T08:40:39;40.53;;;16.50;;
42420;SDS011;28063;48.140;11.588;2022-12-18T08:43:11;40.85;;;17.60;;
42420;SDS011;28063;48.140;11.588;2022-12-18T08:45:56;38.22;;;16.50;;
42420;SDS011;28063;48.140;11.588;2022-12-18T08:48:22;35.45;;;15.85;;
42420;SDS011;28063;48.140;11.588;2022-12-18T08:50:58;35.50;;;15.60;;
42420;SDS011;28063;48.140;11.588;2022-12-18T08:53:25;32.97;;;14.57;;
42420;SDS011;28063;48.140;11.588;2022-12-18T08:55:54;33.33;;;14.63;;
42420;SDS011;28063;48.140;11.588;2022-12-18T08:58:21;35.70;;;15.60;;
42420;SDS011;28063;48.140;11.588;2022-12-18T09:00:48;34.05;;;16.13;;
42420;SDS011;28063;48.140;11.588;2022-12-18T09:03:16;37.63;;;17.08;;
42420;SDS011;28063;48.140;11.588;2022-12-18T09:05:42;35.92;;;16.27;;
42420;SDS011;28063;48.140;11.588;2022-12-18T09:08:12;33.65;;;15.13;;
42420;SDS011;28063;48.140;11.588;2022-12-18T09:10:41;33.65;;;15.70;;
42420;SDS011;28063;48.140;11.588;2022-12-18T09:13:09;35.40;;;16.13;;
42420;SDS011;28063;48.140;11.588;2022-12-18T09:15:40;33.35;;;14.95;;
42420;SDS011;28063;48.140;11.588;2022-12-18T09:18:06;35.55;;;16.23;;
42420;SDS011;28063;48.140;11.588;2022-12-18T09:20:33;36.88;;;15.98;;
42420;SDS011;28063;48.140;11.588;2022-12-18T09:22:59;32.42;;;16.30;;
42420;SDS011;28063;48.140;11.588;2022-12-18T09:25:25;30.75;;;14.98;;
42420;SDS011;28063;48.140;11.588;2022-12-18T09:27:56;32.97;;;15.40;;
42420;SDS011;28063;48.140;11.588;2022-12-18T09:30:22;35.60;;;14.45;;
42420;SDS011;28063;48.140;11.588;2022-12-18T09:32:48;30.95;;;14.80;;
42420;SDS011;28063;48.140;11.588;2022-12-18T09:35:15;36.20;;;14.90;;
42420;SDS011;28063;48.140;11.588;2022-12-18T09:37:41;37.33;;;16.17;;
42420;SDS011;28063;48.140;11.588;2022-12-18T09:40:12;37.42;;;16.25;;
42420;SDS011;28063;48.140;11.588;2022-12-18T09:42:39;41.22;;;16.85;;
42420;SDS011;28063;48.140;11.588;2022-12-18T09:45:07;36.35;;;15.00;;
42420;SDS011;28063;48.140;11.588;2022-12-18T09:47:37;38.40;;;16.17;;
42420;SDS011;28063;48.140;11.588;2022-12-18T09:50:06;37.30;;;16.13;;
42420;SDS011;28063;48.140;11.588;2022-12-18T09:52:41;32.55;;;14.55;;
42420;SDS011;28063;48.140;11.588;2022-12-18T09:55:10;33.85;;;14.68;;
42420;SDS011;28063;48.140;11.588;2022-12-18T09:57:39;36.80;;;15.98;;
42420;SDS011;28063;48.140;11.588;2022-12-18T10:00:18;30.73;;;14.23;;
42420;SDS011;28063;48.140;11.588;2022-12-18T10:02:45;31.23;;;13.77;;
42420;SDS011;28063;48.140;11.588;2022-12-18T10:05:12;36.88;;;16.75;;
42420;SDS011;28063;48.140;11.588;2022-12-18T10:15:28;35.72;;;16.30;;
42420;SDS011;28063;48.140;11.588;2022-12-18T10:26:02;36.63;;;15.15;;
42420;SDS011;28063;48.140;11.588;2022-12-18T10:28:29;37.22;;;15.73;;
42420;SDS011;28063;48.140;11.588;2022-12-18T10:30:55;33.13;;;15.38;;
42420;SDS011;28063;48.140;11.588;2022-12-18T10:33:22;30.75;;;14.90;;
42420;SDS011;28063;48.140;11.588;2022-12-18T10:35:49;34.40;;;14.88;;
42420;SDS011;28063;48.140;11.588;2022-12-18T10:40:52;36.25;;;15.20;;
42420;SDS011;28063;48.140;11.588;2022-12-18T10:43:20;30.58;;;14.15;;
42420;SDS011;28063;48.140;11.588;2022-12-18T10:46:00;32.38;;;14.32;;
42420;SDS011;28063;48.140;11.588;2022-12-18T10:48:26;29.77;;;13.15;;
42420;SDS011;28063;48.140;11.588;2022-12-18T10:50:53;34.22;;;14.70;;
42420;SDS011;28063;48.140;11.588;2022-12-18T10:53:21;33.92;;;14.77;;
42420;SDS011;28063;48.140;11.588;2022-12-18T10:55:48;30.73;;;14.85;;
42420;SDS011;28063;48.140;11.588;2022-12-18T10:58:27;33.90;;;14.88;;
42420;SDS011;28063;48.140;11.588;2022-12-18T11:04:24;28.85;;;13.60;;
42420;SDS011;28063;48.140;11.588;2022-12-18T11:06:58;31.88;;;14.70;;
42420;SDS011;28063;48.140;11.588;2022-12-18T11:09:28;30.95;;;13.93;;
42420;SDS011;28063;48.140;11.588;2022-12-18T11:12:02;30.65;;;14.88;;
42420;SDS011;28063;48.140;11.588;2022-12-18T11:14:33;34.40;;;15.45;;
42420;SDS011;28063;48.140;11.588;2022-12-18T11:17:00;32.50;;;14.70;;
42420;SDS011;28063;48.140;11.588;2022-12-18T11:19:33;34.42;;;14.77;;
42420;SDS011;28063;48.140;11.588;2022-12-18T11:22:00;31.30;;;14.45;;
42420;SDS011;28063;48.140;11.588;2022-12-18T11:24:31;28.63;;;14.05;;
42420;SDS011;28063;48.140;11.588;2022-12-18T11:26:58;31.48;;;14.68;;
42420;SDS011;28063;48.140;11.588;2022-12-18T11:29:36;31.60;;;14.63;;
42420;SDS011;28063;48.140;11.588;2022-12-18T11:34:45;32.38;;;15.00;;
42420;SDS011;28063;48.140;11.588;2022-12-18T11:37:12;30.73;;;14.63;;
42420;SDS011;28063;48.140;11.588;2022-12-18T11:39:44;34.08;;;15.27;;
42420;SDS011;28063;48.140;11.588;2022-12-18T11:42:18;33.63;;;14.52;;
42420;SDS011;28063;48.140;11.588;2022-12-18T11:50:00;26.98;;;13.27;;
42420;SDS011;28063;48.140;11.588;2022-12-18T11:52:37;26.88;;;12.43;;
42420;SDS011;28063;48.140;11.588;2022-12-18T11:55:07;28.45;;;12.57;;
42420;SDS011;28063;48.140;11.588;2022-12-18T12:00:15;27.38;;;12.88;;
42420;SDS011;28063;48.140;11.588;2022-12-18T12:21:14;32.40;;;14.10;;
42420;SDS011;28063;48.140;11.588;2022-12-18T12:23:57;31.85;;;14.27;;
42420;SDS011;28063;48.140;11.588;2022-12-18T12:34:08;32.72;;;14.18;;
42420;SDS011;28063;48.140;11.588;2022-12-18T12:39:27;34.22;;;14.73;;
42420;SDS011;28063;48.140;11.588;2022-12-18T12:41:54;37.58;;;16.40;;
42420;SDS011;28063;48.140;11.588;2022-12-18T12:44:43;37.97;;;15.30;;
42420;SDS011;28063;48.140;11.588;2022-12-18T12:47:13;30.88;;;13.73;;
42420;SDS011;28063;48.140;11.588;2022-12-18T12:49:40;31.92;;;14.35;;
42420;SDS011;28063;48.140;11.588;2022-12-18T12:52:12;32.63;;;14.20;;
42420;SDS011;28063;48.140;11.588;2022-12-18T12:54:39;31.95;;;13.57;;
42420;SDS011;28063;48.140;11.588;2022-12-18T12:57:10;30.88;;;14.35;;
42420;SDS011;28063;48.140;11.588;2022-12-18T13:07:39;29.45;;;12.93;;
42420;SDS011;28063;48.140;11.588;2022-12-18T13:15:45;24.30;;;11.70;;
42420;SDS011;28063;48.140;11.588;2022-12-18T13:18:21;26.50;;;12.32;;
42420;SDS011;28063;48.140;11.588;2022-12-18T13:25:49;35.30;;;15.48;;
42420;SDS011;28063;48.140;11.588;2022-12-18T13:28:16;35.85;;;16.05;;
42420;SDS011;28063;48.140;11.588;2022-12-18T13:30:49;34.10;;;14.90;;
42420;SDS011;28063;48.140;11.588;2022-12-18T13:45:49;30.85;;;14.02;;
42420;SDS011;28063;48.140;11.588;2022-12-18T13:48:16;33.63;;;14.38;;
42420;SDS011;28063;48.140;11.588;2022-12-18T13:50:43;29.90;;;13.27;;
42420;SDS011;28063;48.140;11.588;2022-12-18T13:53:21;27.30;;;13.63;;
42420;SDS011;28063;48.140;11.588;2022-12-18T13:55:47;33.58;;;15.10;;
42420;SDS011;28063;48.140;11.588;2022-12-18T13:58:14;35.70;;;15.23;;
42420;SDS011;28063;48.140;11.588;2022-12-18T14:00:41;35.47;;;15.57;;
42420;SDS011;28063;48.140;11.588;2022-12-18T14:03:20;37.63;;;16.45;;
42420;SDS011;28063;48.140;11.588;2022-12-18T14:05:51;36.05;;;15.73;;
42420;SDS011;28063;48.140;11.588;2022-12-18T14:08:18;36.65;;;15.20;;
42420;SDS011;28063;48.140;11.588;2022-12-18T14:10:45;40.10;;;16.08;;
42420;SDS011;28063;48.140;11.588;2022-12-18T14:13:15;42.88;;;17.42;;
42420;SDS011;28063;48.140;11.588;2022-12-18T14:15:42;35.53;;;16.25;;
42420;SDS011;28063;48.140;11.588;2022-12-18T14:21:00;38.97;;;15.90;;
42420;SDS011;28063;48.140;11.588;2022-12-18T14:25:53;33.35;;;15.05;;
42420;SDS011;28063;48.140;11.588;2022-12-18T14:28:19;35.20;;;15.93;;
42420;SDS011;28063;48.140;11.588;2022-12-18T14:30:47;34.15;;;14.95;;
42420;SDS011;28063;48.140;11.588;2022-12-18T14:33:23;33.50;;;13.95;;
42420;SDS011;28063;48.140;11.588;2022-12-18T14:41:10;33.40;;;14.40;;
42420;SDS011;28063;48.140;11.588;2022-12-18T14:43:37;33.25;;;14.63;;
42420;SDS011;28063;48.140;11.588;2022-12-18T14:48:49;35.72;;;13.90;;
42420;SDS011;28063;48.140;11.588;2022-12-18T14:51:16;39.97;;;16.45;;
42420;SDS011;28063;48.140;11.588;2022-12-18T14:53:59;34.55;;;14.95;;
42420;SDS011;28063;48.140;11.588;2022-12-18T14:56:27;31.58;;;13.55;;
42420;SDS011;28063;48.140;11.588;2022-12-18T14:58:55;33.35;;;14.70;;
42420;SDS011;28063;48.140;11.588;2022-12-18T15:01:25;34.65;;;15.98;;
42420;SDS011;28063;48.140;11.588;2022-12-18T15:03:52;36.83;;;15.60;;
42420;SDS011;28063;48.140;11.588;2022-12-18T15:09:00;35.50;;;15.05;;
42420;SDS011;28063;48.140;11.588;2022-12-18T15:14:21;33.42;;;14.18;;
42420;SDS011;28063;48.140;11.588;2022-12-18T15:16:51;31.98;;;14.38;;
42420;SDS011;28063;48.140;11.588;2022-12-18T15:19:27;35.17;;;14.95;;
42420;SDS011;28063;48.140;11.588;2022-12-18T15:22:01;34.28;;;15.18;;
42420;SDS011;28063;48.140;11.588;2022-12-18T15:24:29;32.20;;;13.85;;
42420;SDS011;28063;48.140;11.588;2022-12-18T15:26:56;33.45;;;13.90;;
42420;SDS011;28063;48.140;11.588;2022-12-18T15:29:26;36.53;;;14.98;;
42420;SDS011;28063;48.140;11.588;2022-12-18T15:31:59;39.42;;;16.25;;
42420;SDS011;28063;48.140;11.588;2022-12-18T15:34:26;30.90;;;14.10;;
42420;SDS011;28063;48.140;11.588;2022-12-18T15:36:52;34.40;;;15.63;;
42420;SDS011;28063;48.140;11.588;2022-12-18T15:39:18;45.40;;;16.60;;
42420;SDS011;28063;48.140;11.588;2022-12-18T15:41:44;36.28;;;14.35;;
42420;SDS011;28063;48.140;11.588;2022-12-18T15:44:29;37.67;;;15.20;;
42420;SDS011;28063;48.140;11.588;2022-12-18T15:46:56;38.97;;;16.55;;
42420;SDS011;28063;48.140;11.588;2022-12-18T15:49:22;41.53;;;16.33;;
42420;SDS011;28063;48.140;11.588;2022-12-18T15:51:53;43.33;;;16.90;;
42420;SDS011;28063;48.140;11.588;2022-12-18T15:54:19;45.17;;;17.27;;
42420;SDS011;28063;48.140;11.588;2022-12-18T15:57:08;34.15;;;16.42;;
42420;SDS011;28063;48.140;11.588;2022-12-18T15:59:51;37.30;;;15.05;;
42420;SDS011;28063;48.140;11.588;2022-12-18T16:02:18;35.80;;;14.88;;
42420;SDS011;28063;48.140;11.588;2022-12-18T16:04:44;35.97;;;15.27;;
42420;SDS011;28063;48.140;11.588;2022-12-18T16:07:13;46.22;;;18.58;;
42420;SDS011;28063;48.140;11.588;2022-12-18T16:09:39;43.63;;;17.20;;
42420;SDS011;28063;48.140;11.588;2022-12-18T16:12:06;41.25;;;15.95;;
42420;SDS011;28063;48.140;11.588;2022-12-18T16:14:32;35.65;;;15.20;;
42420;SDS011;28063;48.140;11.588;2022-12-18T16:16:59;35.72;;;16.60;;
42420;SDS011;28063;48.140;11.588;2022-12-18T16:19:26;37.95;;;15.38;;
42420;SDS011;28063;48.140;11.588;2022-12-18T16:21:53;40.38;;;17.27;;
42420;SDS011;28063;48.140;11.588;2022-12-18T16:24:24;43.42;;;16.58;;
42420;SDS011;28063;48.140;11.588;2022-12-18T16:26:54;46.70;;;17.00;;
42420;SDS011;28063;48.140;11.588;2022-12-18T16:29:20;39.35;;;16.38;;
42420;SDS011;28063;48.140;11.588;2022-12-18T16:31:49;44.03;;;17.67;;
42420;SDS011;28063;48.140;11.588;2022-12-18T16:36:52;38.40;;;16.63;;